EDSB/FKB METAR and TAF weather

Enter ICAO airport designator
Station Type Date Time Source
EDSB METAR 2019/10/16 18:50 UTC NOAA

EDSB 161850Z 19007KT CAVOK 12/08 Q1013


Station Type Date Time Source
EDSB Decoded METAR 2019/10/16 18:50 UTC NOAA

Karlsruhe, Baden Wurttemberg, Germany (EDSB) 48-46-43N 008-04-47E
Oct 16, 2019 - 02:50 PM EDT / 2019.10.16 1850 UTC
Wind: from the S (190 degrees) at 8 MPH (7 KT):0
Visibility: greater than 7 mile(s):0
Temperature: 53 F (12 C)
Dew Point: 46 F (8 C)
Relative Humidity: 76%
Pressure (altimeter): 29.91 in. Hg (1013 hPa)
ob: EDSB 161850Z 19007KT CAVOK 12/08 Q1013
cycle: 19

Station Type Date Time Source
EDSB TAF 2019/10/16 18:30 UTC NOAA

TAF EDSB 161700Z 1618/1718 20006KT 9999 SCT030
TEMPO 1702/1710 4000 RADZ BKN014
TEMPO 1715/1718 23015G25KT 4500 SHRA SCT025TCU

Example: see airport list